Terminal Aerodrome Forecast
Issued by NWS Duluth, MN

Home | Current Version | Previous Version | Text Only | Print | Product List | Glossary On
Versions: 1 2 3 4 5 6 7 8 9 10 11 12 13 14 15 16 17 18 19 20 21 22
000
FTUS43 KDLH 161139
TAFDLH
TAF
KDLH 161139Z 1612/1712 10007KT P6SM SCT120
     FM161600 10010KT P6SM VCSH BKN045 OVC100
     FM161800 10011KT P6SM -SHRA OVC045
     FM162300 09011KT 5SM -SHRA VCTS OVC035CB
     FM170600 08009KT 3SM SHRA VCTS OVC015CB
     FM170900 09009KT 2SM SHRA BR VCTS BKN008 OVC015CB=

USA.gov is the U.S. government's official web portal to all federal, state and local government web resources and services.